Flight Track Log - Related Links

Times and Time Zones

All times are in EDT time to prevent confusion due to time zone crossing. See the EJA583 flight status page for this flight to view local times or setup timezone preferences in your user account.

Time Position Orientation Groundspeed Altitude Reporting Facility
EDT Latitude Longitude Course Direction KTS MPH feet Rate Location/Type
Wed 05:29:14 PM 36.1147 -94.5011 270° West 268 308 12,200  Level Memphis Center
Wed 05:30:14 PM 36.1039 -94.5803 260° West 249 287 14,800 2,400 Climbing Memphis Center
Wed 05:31:00 PM 35.8614 -94.7333 180° South  Level FlightAware
Wed 05:31:14 PM 36.1028 -94.6703 269° West 248 285 17,000  Level Memphis Center
Wed 05:32:00 PM 35.7825 -94.8175 219° Southwest  Level FlightAware
Wed 05:32:14 PM 36.0828 -94.7667 256° West 274 315 19,100  Level Memphis Center
Wed 05:33:00 PM 35.6990 -94.9011 219° Southwest  Level FlightAware
Wed 05:33:14 PM 36.0236 -94.8456 227° Southwest 293 337 21,100  Level Memphis Center
Wed 05:34:00 PM 35.6167 -94.9852 270° West  Level FlightAware
Wed 05:35:14 PM 35.8514 -94.9414 204° Southwest 312 359 25,200  Level Memphis Center
Wed 05:37:29 PM 35.6525 -95.0200 198° South 355 409 27,700 1,071 Climbing Fort Center
Wed 05:38:30 PM 35.5511 -95.0589 197° South 374 430 28,700 1,000 Climbing Fort Center
Wed 05:39:29 PM 35.4475 -95.1025 199° South 386 444 29,700 807 Climbing Fort Center
Wed 05:40:29 PM 35.3353 -95.1233 189° South 398 458 30,300 750 Climbing Fort Center
Wed 05:41:29 PM 35.2233 -95.1644 197° South 409 471 31,200 1,000 Climbing Fort Center
Wed 05:42:29 PM 35.1419 -95.2708 227° Southwest 395 455 32,300 1,050 Climbing Fort Center
Wed 05:43:29 PM 35.0856 -95.3914 240° Southwest 397 457 33,300 1,000 Climbing Fort Center
Wed 05:44:29 PM 35.0308 -95.5069 240° Southwest 404 465 34,300 1,000 Climbing Fort Center
Wed 05:45:29 PM 34.9742 -95.6247 240° Southwest 404 465 35,300 992 Climbing Fort Center
Wed 05:46:30 PM 34.9194 -95.7347 239° Southwest 404 465 36,300 1,000 Climbing Fort Center
Wed 05:47:29 PM 34.8583 -95.8522 238° Southwest 404 465 37,300 857 Climbing Fort Center
Wed 05:48:29 PM 34.8036 -95.9722 241° Southwest 410 472 38,000 350 Climbing Fort Center
Wed 05:49:29 PM 34.7444 -96.0919 239° Southwest 410 472 38,000  Level Fort Center
Wed 05:50:29 PM 34.6831 -96.2167 239° Southwest 420 483 38,000  Level Fort Center
Wed 05:51:29 PM 34.6194 -96.3411 238° Southwest 430 495 38,000  Level Fort Center
Wed 05:52:29 PM 34.5600 -96.4628 239° Southwest 425 489 38,000  Level Fort Center
Wed 05:53:29 PM 34.5003 -96.5869 240° Southwest 425 489 38,000 200 Level Fort Center
Wed 05:54:29 PM 34.4386 -96.7111 239° Southwest 425 489 38,400 595 Climbing Fort Center
Wed 05:55:30 PM 34.3764 -96.8347 239° Southwest 425 489 39,200 800 Climbing Fort Center
Wed 05:56:29 PM 34.3164 -96.9558 239° Southwest 425 489 40,000 403 Climbing Fort Center
Wed 05:57:29 PM 34.2542 -97.0744 238° Southwest 425 489 40,000  Level Fort Center
Wed 05:58:29 PM 34.1897 -97.1975 238° Southwest 425 489 40,000  Level Fort Center
Wed 05:59:29 PM 34.1192 -97.3156 234° Southwest 431 496 40,000  Level Fort Center
Wed 06:00:29 PM 34.0606 -97.4186 236° Southwest 431 496 40,000  Level Fort Center
Wed 06:01:29 PM 33.9875 -97.5336 233° Southwest 431 496 40,000  Level Fort Center
Wed 06:02:30 PM 33.9122 -97.6536 233° Southwest 443 510 40,000  Level Fort Center
Wed 06:03:29 PM 33.8411 -97.7686 233° Southwest 443 510 40,000  Level Fort Center
Wed 06:04:29 PM 33.7675 -97.8858 233° Southwest 443 510 40,000  Level Fort Center
Wed 06:05:29 PM 33.6939 -98.0028 233° Southwest 443 510 40,000  Level Fort Center
Wed 06:06:29 PM 33.6203 -98.1194 233° Southwest 443 510 40,000  Level Fort Center
Wed 06:07:29 PM 33.5383 -98.2433 232° Southwest 443 510 40,000  Level Fort Center
Wed 06:08:29 PM 33.4622 -98.3597 232° Southwest 443 510 40,000  Level Fort Center
Wed 06:09:30 PM 33.3967 -98.4633 233° Southwest 443 510 40,000  Level Fort Center
Wed 06:10:29 PM 33.3228 -98.5769 232° Southwest 443 510 40,000  Level Fort Center
Wed 06:11:29 PM 33.2464 -98.6925 232° Southwest 443 510 40,000  Level Fort Center
Wed 06:12:29 PM 33.1700 -98.8106 232° Southwest 448 516 40,000  Level Fort Center
Wed 06:13:29 PM 33.0956 -98.9311 234° Southwest 453 521 40,000  Level Fort Center
Wed 06:14:29 PM 33.0189 -99.0461 232° Southwest 453 521 40,000  Level Fort Center
Wed 06:15:29 PM 32.9422 -99.1611 232° Southwest 453 521 40,000  Level Fort Center
Wed 06:16:29 PM 32.8675 -99.2758 232° Southwest 453 521 40,000  Level Fort Center
Wed 06:17:29 PM 32.7883 -99.3928 231° Southwest 458 527 40,000  Level Fort Center
Wed 06:18:29 PM 32.7114 -99.5097 232° Southwest 458 527 40,000  Level Fort Center
Wed 06:19:29 PM 32.6256 -99.6383 232° Southwest 452 520 40,000  Level Fort Center
Wed 06:20:29 PM 32.5422 -99.7519 229° Southwest 458 527 40,000  Level Fort Center
Wed 06:21:29 PM 32.4772 -99.8808 239° Southwest 463 533 40,000  Level Fort Center
Wed 06:22:29 PM 32.4575 -100.0256 261° West 448 516 40,000  Level Fort Center
Wed 06:23:29 PM 32.4419 -100.1703 263° West 448 516 40,000  Level Fort Center
Wed 06:24:29 PM 32.4242 -100.3125 262° West 448 516 40,000  Level Fort Center
Wed 06:25:29 PM 32.3811 -100.4489 250° West 448 516 40,000 -600 Level Fort Center
Wed 06:26:29 PM 32.3278 -100.5800 244° Southwest 448 516 38,800 -1,450 Descending Fort Center
Wed 06:27:29 PM 32.2764 -100.7108 245° Southwest 448 516 37,100 -1,850 Descending Fort Center
Wed 06:28:29 PM 32.2250 -100.8417 245° Southwest 448 516 35,100 -1,750 Descending Fort Center
Wed 06:29:29 PM 32.1844 -100.9456 245° Southwest 443 510 33,600 -1,850 Descending Fort Center
Wed 06:30:29 PM 32.1303 -101.0858 246° West 436 502 31,400 -2,350 Descending Fort Center
Wed 06:31:29 PM 32.0989 -101.2267 255° West 441 507 28,900 -3,050 Descending Fort Center
Wed 06:32:29 PM 32.0758 -101.3656 259° West 441 507 25,300 -3,550 Descending Fort Center
Wed 06:33:29 PM 32.0547 -101.5042 260° West 441 507 21,800 -3,450 Descending Fort Center
Wed 06:34:29 PM 32.0464 -101.6361 266° West 429 494 18,400 -3,350 Descending Fort Center
Wed 06:35:29 PM 32.0378 -101.7633 265° West 408 470 15,100 -3,300 Descending Fort Center
Wed 06:36:29 PM 32.0314 -101.8853 266° West 395 455 11,800 -3,100 Descending Fort Center
Wed 06:37:29 PM 32.0294 -101.9931 269° West 363 418 8,900 -2,850 Descending Fort Center
Wed 06:38:29 PM 32.0306 -102.0764 271° West 310 357 6,100 -2,050 Descending Fort Center
Wed 06:39:29 PM 32.0361 -102.1553 275° West 265 305 4,800 -1,150 Descending Fort Center
Wed 06:40:29 PM 32.0131 -102.2128 245° Southwest 232 267 3,800 -800 Descending Fort Center
Wed 06:41:29 PM 31.9756 -102.2108 177° South 148 170 3,200 -350 Descending Fort Center
Wed 06:42:29 PM 31.9456 -102.2336 213° Southwest 127 146 3,100 5,400 Descending Fort Center
Wed 06:43:29 PM 31.9175 -102.2567 215° Southwest 127 146 14,000 5,450 Climbing Fort Center
Wed 06:44:29 PM 31.8914 -102.2797 217° Southwest 127 146 14,000  Level Fort Center
Wed 06:45:29 PM 31.8633 -102.3028 215° Southwest 127 146 14,000  Level Fort Center
Wed 06:46:29 PM 31.8592 -102.3072 222° Southwest 127 146 14,000  Level Fort Center

Login

Don't have an account? Register now (free) for customized features, flight alerts, and more!